createdAt,value
2018-04-25T00:02:12.245Z,67.20
2018-04-25T00:04:38.698Z,67.30
2018-04-25T00:07:05.735Z,67.50
2018-04-25T00:09:32.172Z,67.40
2018-04-25T00:11:58.588Z,67.30
2018-04-25T00:14:24.937Z,67.20
2018-04-25T00:16:51.333Z,67.30
2018-04-25T00:19:17.712Z,67.70
2018-04-25T00:21:44.133Z,68.40
2018-04-25T00:24:10.497Z,68.20
2018-04-25T00:26:36.893Z,68.90
2018-04-25T00:29:03.311Z,68.20
2018-04-25T00:31:29.692Z,67.40
2018-04-25T00:33:56.056Z,67.80
2018-04-25T00:36:22.451Z,68.70
2018-04-25T00:38:48.820Z,68.30
2018-04-25T00:41:15.244Z,68.50
2018-04-25T00:43:41.635Z,68.70
2018-04-25T00:46:08.030Z,68.80
2018-04-25T00:48:34.443Z,69.10
2018-04-25T00:51:00.833Z,69.20
2018-04-25T00:53:27.232Z,69.40
2018-04-25T00:55:53.636Z,69.00
2018-04-25T00:58:20.042Z,68.50
2018-04-25T01:00:46.479Z,68.40
2018-04-25T01:03:13.649Z,69.30
2018-04-25T01:05:40.082Z,69.20
2018-04-25T01:08:06.488Z,69.10
2018-04-25T01:10:32.901Z,69.70
2018-04-25T01:12:59.328Z,68.90
2018-04-25T01:15:25.729Z,69.30
2018-04-25T01:17:52.144Z,69.20
2018-04-25T01:20:19.509Z,68.60
2018-04-25T01:22:48.572Z,68.10
2018-04-25T01:25:28.841Z,68.10
2018-04-25T01:28:17.095Z,67.80
2018-04-25T01:30:48.436Z,67.10
2018-04-25T01:33:22.513Z,67.10
2018-04-25T01:35:57.524Z,67.20
2018-04-25T01:38:23.914Z,67.20
2018-04-25T01:40:50.331Z,66.50
2018-04-25T01:43:16.728Z,66.70
2018-04-25T01:49:05.855Z,64.70
2018-04-25T01:51:50.579Z,64.80
2018-04-25T01:54:35.497Z,64.80
2018-04-25T01:57:20.345Z,64.50
2018-04-25T02:00:05.045Z,63.90
2018-04-25T02:02:31.136Z,63.80
2018-04-25T02:04:57.545Z,63.20
2018-04-25T02:07:23.901Z,63.10
2018-04-25T02:09:50.264Z,63.20
2018-04-25T02:12:16.681Z,63.30
2018-04-25T02:14:43.826Z,62.80
2018-04-25T02:17:10.212Z,62.70
2018-04-25T02:19:36.604Z,62.50
2018-04-25T02:22:02.977Z,62.70
2018-04-25T02:24:29.380Z,63.00
2018-04-25T02:26:55.733Z,63.00
2018-04-25T02:29:22.109Z,63.10
2018-04-25T02:31:49.208Z,62.90
2018-04-25T02:34:15.601Z,62.90
2018-04-25T02:36:41.981Z,62.70
2018-04-25T02:39:08.356Z,62.70
2018-04-25T02:41:35.464Z,63.00
2018-04-25T02:44:01.859Z,63.00
2018-04-25T02:46:28.233Z,62.90
2018-04-25T02:48:54.635Z,62.60
2018-04-25T02:51:20.993Z,62.40
2018-04-25T02:53:47.367Z,62.80
2018-04-25T02:56:13.756Z,63.00
2018-04-25T02:58:40.117Z,62.90
2018-04-25T03:01:07.241Z,62.80
2018-04-25T03:03:33.608Z,62.70
2018-04-25T03:06:00.056Z,62.70
2018-04-25T03:08:26.410Z,62.50
2018-04-25T03:10:52.843Z,62.30
2018-04-25T03:13:19.222Z,62.70
2018-04-25T03:15:45.615Z,62.70
2018-04-25T03:18:11.998Z,62.70
2018-04-25T03:20:38.401Z,63.00
2018-04-25T03:23:04.758Z,63.00
2018-04-25T03:25:31.120Z,63.20
2018-04-25T03:27:57.484Z,63.30
2018-04-25T03:30:23.823Z,63.90
2018-04-25T03:32:50.966Z,63.90
2018-04-25T03:35:18.073Z,63.70
2018-04-25T03:37:44.471Z,63.60
2018-04-25T03:40:10.795Z,64.10
2018-04-25T03:42:37.205Z,64.10
2018-04-25T03:45:03.635Z,63.90
2018-04-25T03:47:30.760Z,63.70
2018-04-25T03:49:57.142Z,63.60
2018-04-25T03:52:23.519Z,63.90
2018-04-25T03:54:49.901Z,63.90
2018-04-25T03:57:16.297Z,64.10
2018-04-25T03:59:42.717Z,64.00
2018-04-25T04:02:09.185Z,64.20
2018-04-25T04:04:35.564Z,64.80
2018-04-25T04:07:01.978Z,64.20
2018-04-25T04:09:28.348Z,63.90
2018-04-25T04:11:54.728Z,64.20
2018-04-25T04:14:21.147Z,64.10
2018-04-25T04:16:47.513Z,63.90
2018-04-25T04:19:13.924Z,63.80
2018-04-25T04:21:40.351Z,63.60
2018-04-25T04:24:06.729Z,63.90
2018-04-25T04:26:33.102Z,64.00
2018-04-25T04:28:59.540Z,64.00
2018-04-25T04:31:25.957Z,64.00
2018-04-25T04:33:53.099Z,63.80
2018-04-25T04:36:19.485Z,63.80
2018-04-25T04:38:45.944Z,63.80
2018-04-25T04:41:13.061Z,63.80
2018-04-25T04:43:39.452Z,63.80
2018-04-25T04:46:05.857Z,63.90
2018-04-25T04:48:32.253Z,63.80
2018-04-25T04:50:58.669Z,63.90
2018-04-25T04:53:25.045Z,64.10
2018-04-25T04:55:51.430Z,64.10
2018-04-25T04:58:17.853Z,63.30
2018-04-25T05:00:44.265Z,64.00
2018-04-25T05:03:11.427Z,63.80
2018-04-25T05:05:37.876Z,63.80
2018-04-25T05:08:04.287Z,63.80
2018-04-25T05:10:30.740Z,63.80
2018-04-25T05:12:57.123Z,63.40
2018-04-25T05:15:23.487Z,64.00
2018-04-25T05:17:49.888Z,64.40
2018-04-25T05:20:17.017Z,63.60
2018-04-25T05:22:44.176Z,63.90
2018-04-25T05:25:10.653Z,63.80
2018-04-25T05:27:37.049Z,64.10
2018-04-25T05:30:04.236Z,64.30
2018-04-25T05:32:30.635Z,64.20
2018-04-25T05:34:57.055Z,63.90
2018-04-25T05:37:24.140Z,63.20
2018-04-25T05:39:50.537Z,63.20
2018-04-25T05:42:16.900Z,62.70
2018-04-25T05:44:43.314Z,62.40
2018-04-25T05:47:09.749Z,62.00
2018-04-25T05:49:36.168Z,62.70
2018-04-25T05:52:02.658Z,62.70
2018-04-25T05:54:29.012Z,62.20
2018-04-25T05:56:55.422Z,61.60
2018-04-25T05:59:21.788Z,62.00
2018-04-25T06:01:48.911Z,61.30
2018-04-25T06:04:15.283Z,61.30
2018-04-25T06:06:41.688Z,60.40
2018-04-25T06:09:08.812Z,60.60
2018-04-25T06:11:35.265Z,60.40
2018-04-25T06:14:01.697Z,60.40
2018-04-25T06:16:28.156Z,60.00
2018-04-25T06:18:54.533Z,60.00
2018-04-25T06:21:20.876Z,59.40
2018-04-25T06:23:47.320Z,60.00
2018-04-25T06:26:13.704Z,59.60
2018-04-25T06:28:40.100Z,60.50
2018-04-25T06:31:06.612Z,58.60
2018-04-25T06:33:33.009Z,58.60
2018-04-25T06:35:59.404Z,58.30
2018-04-25T06:38:25.896Z,58.10
2018-04-25T06:40:52.645Z,57.50
2018-04-25T06:43:19.021Z,57.60
2018-04-25T06:45:45.423Z,57.10
2018-04-25T06:48:12.544Z,57.40
2018-04-25T06:50:39.006Z,57.20
2018-04-25T06:53:05.314Z,57.10
2018-04-25T06:55:31.712Z,57.20
2018-04-25T06:57:58.080Z,56.80
2018-04-25T07:00:24.456Z,56.50
2018-04-25T07:02:50.813Z,56.40
2018-04-25T07:05:17.281Z,56.60
2018-04-25T07:07:53.555Z,56.30
2018-04-25T07:10:19.977Z,56.20
2018-04-25T07:12:47.105Z,56.40
2018-04-25T07:15:13.650Z,56.30
2018-04-25T07:17:40.764Z,55.60
2018-04-25T07:20:07.239Z,55.60
2018-04-25T07:22:34.382Z,55.90
2018-04-25T07:25:01.537Z,55.00
2018-04-25T07:27:28.769Z,55.90
2018-04-25T07:29:55.943Z,55.50
2018-04-25T07:32:23.081Z,55.20
2018-04-25T07:34:50.192Z,55.30
2018-04-25T07:37:16.593Z,55.30
2018-04-25T07:39:43.081Z,55.40
2018-04-25T07:42:09.559Z,55.00
2018-04-25T07:44:35.915Z,55.20
2018-04-25T07:47:02.348Z,54.10
2018-04-25T07:49:28.708Z,54.20
2018-04-25T07:51:55.118Z,53.60
2018-04-25T07:54:21.521Z,53.20
2018-04-25T07:56:47.893Z,53.20
2018-04-25T07:59:14.365Z,53.30
2018-04-25T08:01:40.745Z,52.70
2018-04-25T08:04:07.137Z,52.60
2018-04-25T08:06:33.536Z,52.40
2018-04-25T08:08:59.907Z,52.60
2018-04-25T08:11:26.372Z,52.30
2018-04-25T08:14:11.256Z,52.10
2018-04-25T08:16:56.054Z,51.60
2018-04-25T08:19:55.286Z,49.80
2018-04-25T08:22:21.808Z,49.80
2018-04-25T08:24:48.194Z,50.10
2018-04-25T08:27:14.629Z,49.90
2018-04-25T08:29:41.001Z,49.60
2018-04-25T08:32:07.407Z,49.60
2018-04-25T08:34:33.816Z,49.50
2018-04-25T08:37:00.941Z,49.50
2018-04-25T08:39:27.344Z,48.80
2018-04-25T08:41:53.758Z,49.10
2018-04-25T08:44:20.165Z,49.30
2018-04-25T08:46:46.562Z,48.40
2018-04-25T08:49:13.001Z,46.70
2018-04-25T08:51:39.472Z,47.20
2018-04-25T08:54:05.898Z,47.60
2018-04-25T08:56:32.282Z,47.60
2018-04-25T08:58:58.716Z,47.60
2018-04-25T09:01:25.125Z,48.50
2018-04-25T09:03:51.545Z,48.40
2018-04-25T09:06:17.902Z,47.50
2018-04-25T09:08:44.303Z,47.90
2018-04-25T09:11:10.704Z,47.60
2018-04-25T09:13:37.127Z,48.20
2018-04-25T09:16:03.623Z,47.20
2018-04-25T09:18:30.007Z,47.30
2018-04-25T09:20:56.449Z,46.70
2018-04-25T09:23:22.842Z,46.70
2018-04-25T09:25:49.276Z,46.00
2018-04-25T09:28:15.703Z,45.80
2018-04-25T09:30:42.120Z,45.10
2018-04-25T09:33:18.529Z,45.10
2018-04-25T09:35:44.895Z,44.80
2018-04-25T09:38:11.256Z,43.40
2018-04-25T09:40:37.640Z,43.30
2018-04-25T09:43:04.005Z,43.40
2018-04-25T09:45:30.404Z,42.00
2018-04-25T09:47:56.767Z,37.90
2018-04-25T09:50:23.193Z,39.10
2018-04-25T09:52:49.585Z,39.20
2018-04-25T09:55:16.050Z,40.10
2018-04-25T09:57:42.471Z,38.90
2018-04-25T10:00:08.869Z,39.20
2018-04-25T10:02:35.324Z,38.60
2018-04-25T10:05:01.804Z,38.80
2018-04-25T10:07:28.974Z,38.70
2018-04-25T10:09:56.129Z,37.40
2018-04-25T10:12:22.512Z,37.40
2018-04-25T10:14:49.057Z,37.40
2018-04-25T10:17:15.466Z,38.20
2018-04-25T10:19:41.845Z,39.60
2018-04-25T10:22:08.296Z,40.20
2018-04-25T10:24:34.668Z,38.60
2018-04-25T10:27:01.101Z,38.80
2018-04-25T10:29:27.523Z,37.20
2018-04-25T10:31:53.953Z,38.40
2018-04-25T10:34:20.343Z,37.90
2018-04-25T10:36:46.765Z,36.30
2018-04-25T10:39:13.167Z,35.90
2018-04-25T10:41:39.593Z,35.80
2018-04-25T10:44:05.996Z,34.60
2018-04-25T10:46:32.373Z,34.40
2018-04-25T10:48:58.806Z,35.60
2018-04-25T10:51:25.169Z,35.90
2018-04-25T10:53:51.573Z,35.30
2018-04-25T10:56:17.918Z,34.50
2018-04-25T10:58:44.324Z,34.80
2018-04-25T11:01:10.691Z,34.50
2018-04-25T11:03:37.341Z,35.20
2018-04-25T11:06:03.774Z,34.50
2018-04-25T11:08:30.222Z,34.10
2018-04-25T11:10:56.635Z,35.50
2018-04-25T11:13:23.012Z,34.80
2018-04-25T11:15:49.417Z,36.10
2018-04-25T11:18:15.889Z,36.10
2018-04-25T11:20:42.299Z,36.50
2018-04-25T11:23:08.643Z,37.20
2018-04-25T11:25:35.036Z,39.20
2018-04-25T11:28:01.396Z,40.00
2018-04-25T11:30:34.738Z,39.90
2018-04-25T11:33:01.156Z,41.00
2018-04-25T11:35:27.573Z,40.50
2018-04-25T11:37:54.784Z,42.40
2018-04-25T11:40:21.215Z,42.30
2018-04-25T11:42:47.581Z,41.60
2018-04-25T11:45:13.948Z,41.60
2018-04-25T11:47:40.363Z,42.50
2018-04-25T11:50:06.798Z,42.80
2018-04-25T11:52:33.209Z,42.80
2018-04-25T11:55:00.401Z,42.20
2018-04-25T11:57:27.257Z,42.20
2018-04-25T11:59:53.826Z,42.70
2018-04-25T12:02:20.968Z,42.60
2018-04-25T12:04:47.335Z,42.20
2018-04-25T12:07:13.744Z,42.80
2018-04-25T12:09:40.876Z,42.50
2018-04-25T12:12:07.329Z,42.50
2018-04-25T12:14:33.724Z,39.90
2018-04-25T12:17:00.097Z,40.30
2018-04-25T12:19:26.544Z,40.20
2018-04-25T12:21:52.955Z,41.20
2018-04-25T12:24:20.200Z,42.60
2018-04-25T12:26:46.577Z,42.60
2018-04-25T12:29:13.023Z,42.50
2018-04-25T12:31:39.449Z,42.70
2018-04-25T12:34:05.932Z,42.20
2018-04-25T12:36:32.317Z,42.40
2018-04-25T12:38:58.857Z,42.20
2018-04-25T12:41:25.276Z,42.40
2018-04-25T12:43:51.670Z,42.00
2018-04-25T12:46:18.133Z,42.20
2018-04-25T12:48:44.503Z,42.60
2018-04-25T12:51:10.903Z,42.90
2018-04-25T12:53:37.336Z,41.20
2018-04-25T12:56:05.220Z,39.40
2018-04-25T12:58:31.761Z,39.40
2018-04-25T13:00:58.155Z,38.90
2018-04-25T13:03:25.340Z,39.20
2018-04-25T13:05:51.739Z,39.20
2018-04-25T13:08:18.131Z,38.60
2018-04-25T13:10:45.286Z,38.70
2018-04-25T13:13:11.706Z,38.70
2018-04-25T13:15:38.116Z,38.50
2018-04-25T13:18:04.614Z,38.70
2018-04-25T13:20:30.988Z,38.70
2018-04-25T13:22:58.136Z,40.60
2018-04-25T13:25:24.747Z,40.50
2018-04-25T13:27:51.163Z,41.00
2018-04-25T13:30:17.581Z,40.90
2018-04-25T13:32:43.971Z,42.30
2018-04-25T13:35:11.161Z,42.80
2018-04-25T13:37:38.287Z,42.60
2018-04-25T13:40:04.754Z,42.60
2018-04-25T13:42:31.138Z,42.80
2018-04-25T13:44:57.643Z,43.60
2018-04-25T13:47:24.043Z,43.20
2018-04-25T13:49:50.456Z,43.40
2018-04-25T13:52:16.875Z,44.00
2018-04-25T13:54:43.300Z,44.00
2018-04-25T13:57:10.522Z,44.30
2018-04-25T13:59:36.952Z,44.20
2018-04-25T14:02:03.356Z,44.50
2018-04-25T14:04:29.768Z,43.60
2018-04-25T14:06:56.195Z,44.70
2018-04-25T14:09:23.400Z,44.90
2018-04-25T14:11:49.836Z,44.90
2018-04-25T14:14:16.260Z,44.30
2018-04-25T14:16:42.838Z,44.00
2018-04-25T14:19:09.572Z,44.80
2018-04-25T14:21:36.127Z,44.80
2018-04-25T14:24:02.519Z,43.40
2018-04-25T14:26:29.648Z,44.40
2018-04-25T14:28:56.029Z,44.30
2018-04-25T14:31:22.442Z,43.80
2018-04-25T14:33:48.841Z,44.10
2018-04-25T14:36:15.284Z,44.20
2018-04-25T14:38:41.704Z,44.20
2018-04-25T14:41:08.876Z,44.00
2018-04-25T14:43:36.020Z,43.50
2018-04-25T14:46:04.127Z,42.20
2018-04-25T14:48:30.607Z,42.10
2018-04-25T14:50:56.995Z,42.50
2018-04-25T14:53:23.415Z,41.40
2018-04-25T14:55:49.834Z,41.20
2018-04-25T14:58:16.253Z,42.00
2018-04-25T15:00:43.444Z,41.40
2018-04-25T15:03:09.875Z,41.30
2018-04-25T15:05:36.332Z,40.80
2018-04-25T15:08:02.734Z,40.20
2018-04-25T15:10:29.126Z,40.00
2018-04-25T15:12:56.300Z,40.40
2018-04-25T15:15:23.529Z,40.40
2018-04-25T15:17:49.971Z,40.60
2018-04-25T15:20:16.444Z,40.00
2018-04-25T15:22:42.879Z,39.50
2018-04-25T15:25:09.254Z,39.60
2018-04-25T15:27:36.388Z,39.70
2018-04-25T15:30:02.870Z,39.50
2018-04-25T15:32:29.254Z,39.80
2018-04-25T15:34:55.653Z,40.00
2018-04-25T15:37:23.557Z,40.40
2018-04-25T15:39:50.892Z,39.30
2018-04-25T15:42:17.258Z,40.20
2018-04-25T15:44:43.711Z,41.00
2018-04-25T15:47:11.805Z,42.10
2018-04-25T15:49:38.236Z,42.90
2018-04-25T15:52:05.238Z,44.00
2018-04-25T15:54:33.363Z,43.60
2018-04-25T15:56:59.748Z,44.30
2018-04-25T15:59:26.168Z,44.50
2018-04-25T16:01:52.597Z,44.80
2018-04-25T16:04:19.023Z,44.70
2018-04-25T16:06:45.460Z,45.80
2018-04-25T16:09:11.925Z,45.80
2018-04-25T16:11:38.381Z,45.50
2018-04-25T16:14:04.824Z,46.00
2018-04-25T16:16:31.211Z,46.30
2018-04-25T16:18:58.460Z,47.40
2018-04-25T16:21:24.887Z,47.40
2018-04-25T16:23:51.309Z,47.60
2018-04-25T16:26:17.730Z,47.90
2018-04-25T16:28:44.117Z,48.20
2018-04-25T16:31:10.585Z,48.40
2018-04-25T16:33:37.023Z,48.60
2018-04-25T16:36:04.271Z,49.00
2018-04-25T16:38:30.763Z,48.90
2018-04-25T16:40:57.864Z,49.90
2018-04-25T16:43:24.253Z,49.80
2018-04-25T16:45:50.711Z,50.20
2018-04-25T16:48:17.145Z,50.30
2018-04-25T16:50:43.655Z,50.00
2018-04-25T16:53:10.063Z,50.80
2018-04-25T16:55:37.264Z,50.50
2018-04-25T16:58:04.402Z,50.50
2018-04-25T17:00:31.587Z,50.90
2018-04-25T17:02:58.128Z,50.90
2018-04-25T17:05:24.684Z,51.10
2018-04-25T17:07:52.109Z,50.60
2018-04-25T17:10:18.530Z,51.50
2018-04-25T17:12:45.035Z,52.00
2018-04-25T17:15:11.544Z,52.40
2018-04-25T17:17:37.980Z,52.40
2018-04-25T17:20:05.145Z,53.00
2018-04-25T17:22:31.566Z,52.80
2018-04-25T17:24:58.088Z,52.50
2018-04-25T17:27:24.484Z,53.20
2018-04-25T17:29:50.905Z,53.40
2018-04-25T17:32:17.339Z,53.70
2018-04-25T17:34:43.697Z,53.90
2018-04-25T17:37:10.181Z,53.60
2018-04-25T17:39:37.405Z,53.80
2018-04-25T17:42:03.936Z,53.80
2018-04-25T17:44:30.473Z,53.50
2018-04-25T17:46:56.925Z,53.50
2018-04-25T17:49:24.118Z,53.30
2018-04-25T17:51:50.597Z,53.30
2018-04-25T17:54:17.089Z,53.00
2018-04-25T17:56:43.581Z,52.60
2018-04-25T17:59:10.103Z,53.30
2018-04-25T18:01:36.549Z,53.60
2018-04-25T18:04:03.002Z,53.30
2018-04-25T18:06:29.504Z,53.10
2018-04-25T18:08:56.718Z,53.20
2018-04-25T18:11:23.266Z,53.20
2018-04-25T18:13:50.009Z,53.20
2018-04-25T18:16:17.239Z,53.90
2018-04-25T18:18:43.697Z,53.90
2018-04-25T18:21:10.862Z,54.10
2018-04-25T18:23:38.044Z,54.40
2018-04-25T18:26:04.470Z,54.40
2018-04-25T18:28:30.897Z,53.80
2018-04-25T18:30:57.390Z,53.90
2018-04-25T18:33:23.846Z,53.50
2018-04-25T18:35:50.417Z,53.10
2018-04-25T18:38:17.064Z,52.90
2018-04-25T18:40:43.555Z,53.40
2018-04-25T18:43:10.020Z,53.70
2018-04-25T18:45:36.607Z,54.00
2018-04-25T18:48:03.116Z,54.30
2018-04-25T18:50:30.418Z,54.60
2018-04-25T18:52:56.885Z,54.50
2018-04-25T18:55:23.425Z,55.10
2018-04-25T18:57:49.950Z,54.80
2018-04-25T19:00:16.457Z,55.10
2018-04-25T19:02:42.940Z,54.80
2018-04-25T19:05:09.386Z,55.40
2018-04-25T19:07:36.616Z,55.60
2018-04-25T19:10:03.311Z,55.60
2018-04-25T19:12:29.772Z,55.60
2018-04-25T19:14:56.203Z,55.20
2018-04-25T19:17:22.663Z,55.20
2018-04-25T19:19:50.329Z,55.40
2018-04-25T19:22:16.917Z,55.90
2018-04-25T19:24:43.405Z,56.20
2018-04-25T19:27:10.074Z,56.50
2018-04-25T19:29:36.889Z,56.70
2018-04-25T19:32:03.509Z,57.40
2018-04-25T19:34:30.864Z,56.90
2018-04-25T19:36:58.244Z,57.50
2018-04-25T19:39:24.939Z,56.90
2018-04-25T19:41:52.403Z,57.10
2018-04-25T19:44:18.978Z,57.10
2018-04-25T19:46:45.888Z,57.00
2018-04-25T19:49:12.381Z,57.10
2018-04-25T19:51:38.931Z,57.70
2018-04-25T19:54:05.380Z,58.30
2018-04-25T19:56:32.634Z,58.70
2018-04-25T19:59:00.552Z,59.00
2018-04-25T20:01:26.985Z,58.90
2018-04-25T20:03:53.452Z,58.40
2018-04-25T20:06:19.934Z,58.30
2018-04-25T20:08:46.337Z,58.20
2018-04-25T20:11:13.024Z,58.10
2018-04-25T20:13:39.489Z,57.60
2018-04-25T20:16:06.004Z,57.20
2018-04-25T20:18:32.524Z,57.10
2018-04-25T20:20:59.106Z,57.40
2018-04-25T20:23:25.511Z,56.70
2018-04-25T20:25:51.953Z,56.60
2018-04-25T20:28:18.420Z,56.40
2018-04-25T20:30:44.923Z,56.50
2018-04-25T20:33:11.478Z,55.90
2018-04-25T20:35:38.744Z,56.40
2018-04-25T20:38:05.426Z,56.40
2018-04-25T20:40:32.027Z,55.90
2018-04-25T20:43:00.563Z,56.50
2018-04-25T20:45:27.200Z,56.40
2018-04-25T20:47:54.523Z,55.30
2018-04-25T20:50:21.003Z,55.20
2018-04-25T20:52:47.496Z,54.90
2018-04-25T20:55:13.998Z,55.30
2018-04-25T20:57:40.480Z,55.60
2018-04-25T21:00:06.908Z,55.30
2018-04-25T21:02:33.389Z,55.80
2018-04-25T21:04:59.881Z,55.20
2018-04-25T21:07:26.379Z,56.30
2018-04-25T21:09:52.808Z,56.20
2018-04-25T21:12:19.269Z,55.40
2018-04-25T21:14:45.721Z,55.20
2018-04-25T21:17:13.009Z,57.70
2018-04-25T21:19:39.502Z,57.60
2018-04-25T21:22:05.943Z,58.90
2018-04-25T21:24:33.141Z,58.80
2018-04-25T21:26:59.571Z,58.80
2018-04-25T21:29:26.119Z,59.70
2018-04-25T21:31:52.598Z,60.40
2018-04-25T21:34:19.802Z,60.30
2018-04-25T21:36:46.358Z,60.20
2018-04-25T21:39:13.543Z,60.80
2018-04-25T21:41:40.016Z,60.80
2018-04-25T21:44:07.245Z,61.70
2018-04-25T21:46:33.708Z,61.70
2018-04-25T21:49:00.157Z,62.00
2018-04-25T21:51:27.316Z,63.20
2018-04-25T21:53:53.738Z,63.10
2018-04-25T21:56:20.171Z,63.00
2018-04-25T21:58:46.575Z,63.20
2018-04-25T22:01:12.965Z,62.80
2018-04-25T22:03:39.337Z,62.70
2018-04-25T22:06:05.816Z,62.80
2018-04-25T22:08:32.980Z,62.50
2018-04-25T22:10:59.344Z,62.50
2018-04-25T22:13:25.793Z,62.80
2018-04-25T22:15:52.267Z,64.70
2018-04-25T22:18:18.668Z,66.50
2018-04-25T22:20:45.140Z,68.50
2018-04-25T22:23:12.264Z,72.10
2018-04-25T22:25:39.370Z,75.80
2018-04-25T22:28:05.860Z,75.80
2018-04-25T22:30:32.297Z,78.10
2018-04-25T22:32:58.723Z,81.20
2018-04-25T22:35:25.180Z,83.30
2018-04-25T22:37:51.635Z,83.30
2018-04-25T22:40:18.100Z,87.90
2018-04-25T22:42:44.514Z,87.60
2018-04-25T22:45:10.923Z,88.30
2018-04-25T22:47:37.313Z,88.90
2018-04-25T22:50:03.744Z,87.40
2018-04-25T22:52:30.852Z,91.60
2018-04-25T22:54:57.268Z,91.60
2018-04-25T22:57:23.645Z,92.60
2018-04-25T22:59:50.776Z,89.60
2018-04-25T23:02:17.199Z,89.60
2018-04-25T23:04:43.636Z,86.60
2018-04-25T23:07:10.071Z,85.70
2018-04-25T23:09:36.468Z,91.40
2018-04-25T23:12:02.907Z,87.20
2018-04-25T23:14:29.267Z,88.20
2018-04-25T23:16:55.686Z,85.80
2018-04-25T23:19:22.061Z,83.40
2018-04-25T23:21:48.453Z,90.80
2018-04-25T23:24:14.855Z,84.20
2018-04-25T23:26:41.269Z,87.50
2018-04-25T23:29:07.672Z,84.10
2018-04-25T23:31:34.814Z,83.40
2018-04-25T23:34:01.217Z,83.40
2018-04-25T23:36:27.660Z,84.20
2018-04-25T23:38:54.078Z,84.60
2018-04-25T23:41:20.468Z,82.60
2018-04-25T23:43:46.903Z,88.50
2018-04-25T23:46:13.302Z,82.40
2018-04-25T23:48:40.811Z,87.20
2018-04-25T23:51:07.322Z,87.30
2018-04-25T23:53:33.687Z,87.80
2018-04-25T23:56:00.105Z,83.20
2018-04-25T23:58:26.687Z,82.30
